Time;durP1;ratioP1;P1;durP2;ratioP2;P2;SDS_P1;SDS_P2;PMS_P1;PMS_P2;Temp;Humidity;BMP_temperature;BMP_pressure;BME280_temperature;BME280_humidity;BME280_pressure;Samples;Min_cycle;Max_cycle;Signal;HPM_P1;HPM_P2
2022/06/13 00:01:20;;;;;;;;;4.33;2.33;;;;;33.59;19.17;101843.22;5095559;27;45495;-78
2022/06/13 00:03:47;;;;;;;;;2.00;2.00;;;;;33.66;19.00;101833.59;5096614;27;45418;-78
2022/06/13 00:06:12;;;;;;;;;2.33;2.00;;;;;33.73;18.96;101829.50;5096703;27;45548;-78
2022/06/13 00:08:38;;;;;;;;;5.00;3.00;;;;;33.85;19.12;101848.03;5096549;27;45259;-78
2022/06/13 00:11:09;;;;;;;;;4.00;3.00;;;;;33.71;19.23;101847.94;5096692;27;45519;-78
2022/06/13 00:13:35;;;;;;;;;5.00;4.00;;;;;33.48;19.03;101847.50;5096582;27;45361;-78
2022/06/13 00:16:01;;;;;;;;;3.00;3.00;;;;;33.40;19.43;101827.81;5096055;27;46610;-78
2022/06/13 00:18:26;;;;;;;;;3.67;3.00;;;;;33.41;19.75;101836.97;5094856;27;45628;-78
2022/06/13 00:20:54;;;;;;;;;3.67;3.67;;;;;33.23;19.53;101853.59;5096693;27;45492;-78
2022/06/13 00:23:19;;;;;;;;;4.67;4.00;;;;;33.31;20.10;101851.25;5095245;27;45498;-78
2022/06/13 00:25:44;;;;;;;;;5.00;2.33;;;;;33.29;19.72;101846.84;5095931;27;49094;-78
2022/06/13 00:28:09;;;;;;;;;4.33;3.33;;;;;33.14;20.35;101832.13;5096071;27;46795;-78
2022/06/13 00:30:35;;;;;;;;;4.00;3.33;;;;;33.10;20.16;101842.41;5094975;27;45492;-78
2022/06/13 00:33:00;;;;;;;;;3.33;3.33;;;;;33.18;19.89;101837.34;5096087;27;45560;-78
2022/06/13 00:35:25;;;;;;;;;3.33;3.00;;;;;33.21;20.07;101830.78;5094892;27;53410;-78
2022/06/13 00:37:51;;;;;;;;;4.00;3.00;;;;;33.48;19.95;101847.50;5095594;27;52863;-77
2022/06/13 00:40:16;;;;;;;;;3.67;2.00;;;;;33.45;19.85;101855.94;5096400;27;45439;-78
2022/06/13 00:42:42;;;;;;;;;6.00;3.00;;;;;33.16;20.17;101850.31;5095306;27;45501;-78
2022/06/13 00:45:18;;;;;;;;;2.00;2.00;;;;;32.82;20.09;101802.78;5095807;27;45471;-78
2022/06/13 00:47:46;;;;;;;;;7.00;3.00;;;;;32.86;20.23;101827.38;5096055;27;45384;-77
2022/06/13 00:50:21;;;;;;;;;3.00;3.00;;;;;33.03;20.86;101851.13;5095955;27;45437;-77
2022/06/13 00:52:53;;;;;;;;;3.33;3.00;;;;;32.92;20.66;101854.47;5094803;27;45631;-78
2022/06/13 00:55:29;;;;;;;;;3.00;2.00;;;;;32.97;20.65;101842.25;5111496;27;48344;-78
2022/06/13 00:57:55;;;;;;;;;2.00;2.00;;;;;32.95;20.35;101824.06;5095940;27;45320;-78
2022/06/13 01:00:21;;;;;;;;;2.33;2.33;;;;;32.92;20.76;101832.50;5095872;27;45543;-77
2022/06/13 01:02:50;;;;;;;;;3.00;3.00;;;;;32.90;20.66;101823.44;5096032;27;45380;-80
2022/06/13 01:05:21;;;;;;;;;2.33;2.33;;;;;32.74;20.88;101817.97;5094315;27;47396;-80
2022/06/13 01:07:48;;;;;;;;;2.33;2.00;;;;;32.96;21.04;101823.09;5095694;27;45369;-78
2022/06/13 01:13:01;;;;;;;;;3.00;2.00;;;;;33.20;20.63;101804.25;5098412;27;45436;-79
2022/06/13 01:15:41;;;;;;;;;2.67;1.67;;;;;33.26;20.79;101814.91;5098983;27;46560;-77
2022/06/13 01:18:31;;;;;;;;;3.00;2.00;;;;;33.06;21.00;101820.69;5099163;27;45219;-78
2022/06/13 01:20:58;;;;;;;;;4.00;2.33;;;;;33.16;21.16;101819.16;5099181;27;45396;-77
2022/06/13 01:23:48;;;;;;;;;2.33;2.00;;;;;32.97;21.18;101813.88;5099453;27;45375;-77
2022/06/13 01:26:44;;;;;;;;;2.67;2.67;;;;;33.12;20.82;101818.47;5098969;27;46437;-77
2022/06/13 01:29:35;;;;;;;;;3.00;2.67;;;;;33.05;20.74;101813.41;5098633;27;45333;-77
2022/06/13 01:32:17;;;;;;;;;2.00;2.00;;;;;32.95;20.98;101815.81;5099297;27;45471;-77
2022/06/13 01:34:55;;;;;;;;;6.00;3.67;;;;;33.01;20.74;101812.72;5099214;27;45337;-77
2022/06/13 01:37:42;;;;;;;;;3.33;3.33;;;;;32.96;20.88;101810.22;5114976;27;48070;-77
2022/06/13 01:40:25;;;;;;;;;3.33;2.00;;;;;32.90;21.22;101809.69;5098815;27;45512;-77
2022/06/13 01:43:13;;;;;;;;;3.33;3.33;;;;;32.78;21.44;101801.19;5098667;27;45339;-77
2022/06/13 01:46:09;;;;;;;;;2.33;2.33;;;;;32.77;21.30;101815.94;5099129;27;45378;-77
2022/06/13 01:48:55;;;;;;;;;2.67;2.67;;;;;32.74;20.99;101798.72;5098646;27;45608;-77
2022/06/13 01:51:31;;;;;;;;;5.00;4.00;;;;;32.65;21.54;101803.75;5098856;27;45447;-77
2022/06/13 01:54:01;;;;;;;;;3.00;3.00;;;;;32.61;21.83;101813.13;5098845;27;45385;-77
2022/06/13 01:56:33;;;;;;;;;3.67;1.67;;;;;32.45;21.95;101826.88;5097468;27;45374;-77
2022/06/13 01:59:18;;;;;;;;;4.00;2.00;;;;;32.47;22.36;101818.53;5098191;27;45516;-77
2022/06/13 02:01:50;;;;;;;;;2.00;2.00;;;;;32.52;21.88;101823.75;5098624;27;45507;-77
2022/06/13 02:04:37;;;;;;;;;3.00;3.00;;;;;32.56;21.63;101820.78;5098769;27;45336;-77
2022/06/13 02:07:08;;;;;;;;;3.00;3.00;;;;;32.73;21.89;101825.31;5098420;27;45332;-77
2022/06/13 02:09:47;;;;;;;;;3.00;3.00;;;;;32.49;21.78;101805.63;5098493;27;46603;-77
2022/06/13 02:12:15;;;;;;;;;2.00;1.67;;;;;32.60;21.81;101827.88;5098100;27;45362;-77
2022/06/13 02:14:50;;;;;;;;;2.67;1.67;;;;;32.60;21.95;101813.22;5097366;27;45433;-79
2022/06/13 02:17:23;;;;;;;;;4.00;3.00;;;;;32.65;22.09;101808.38;5097203;27;45462;-79
2022/06/13 02:20:05;;;;;;;;;3.00;3.00;;;;;32.65;22.37;101822.97;5098057;27;45338;-79
2022/06/13 02:22:40;;;;;;;;;3.00;1.67;;;;;32.36;21.84;101801.78;5098137;27;45559;-79
2022/06/13 02:25:14;;;;;;;;;4.00;2.00;;;;;32.39;22.33;101821.75;5097671;27;45612;-77
2022/06/13 02:27:44;;;;;;;;;2.33;2.33;;;;;32.38;22.75;101795.25;5097754;27;45368;-77
2022/06/13 02:30:14;;;;;;;;;3.00;3.00;;;;;32.39;22.62;101812.59;5098014;27;46302;-77
2022/06/13 02:32:47;;;;;;;;;1.33;1.33;;;;;32.24;22.33;101789.66;5098274;27;45487;-77
2022/06/13 02:35:18;;;;;;;;;3.00;2.00;;;;;32.49;22.44;101813.88;5098141;27;45523;-77
2022/06/13 02:37:50;;;;;;;;;6.33;4.00;;;;;32.57;22.31;101816.16;5098188;27;45292;-77
2022/06/13 02:40:25;;;;;;;;;6.33;5.00;;;;;32.54;22.42;101803.47;5096282;27;47996;-77
2022/06/13 02:43:03;;;;;;;;;4.00;2.00;;;;;32.47;22.31;101810.31;5098015;27;45349;-77
2022/06/13 02:45:38;;;;;;;;;3.00;1.00;;;;;32.49;22.24;101798.25;5096889;27;45443;-77
2022/06/13 02:48:09;;;;;;;;;5.00;2.67;;;;;32.74;22.12;101818.88;5096421;27;45479;-77
2022/06/13 02:50:54;;;;;;;;;4.00;3.00;;;;;32.72;22.34;101807.06;5097726;27;45486;-77
2022/06/13 02:53:29;;;;;;;;;4.00;3.33;;;;;32.71;22.61;101799.78;5097610;27;45401;-77
2022/06/13 02:56:16;;;;;;;;;4.00;3.00;;;;;32.68;22.57;101788.94;5097495;27;45315;-77
2022/06/13 02:59:29;;;;;;;;;4.00;3.00;;;;;32.84;22.49;101813.69;5096642;27;45381;-77
2022/06/13 03:02:00;;;;;;;;;5.67;3.33;;;;;32.69;22.11;101812.75;5037358;28;47003;-77
2022/06/13 03:04:45;;;;;;;;;5.00;2.67;;;;;32.90;22.59;101820.69;5037603;28;46293;-76
2022/06/13 03:07:19;;;;;;;;;4.00;4.00;;;;;32.88;22.14;101814.41;5054442;28;45559;-77
2022/06/13 03:09:50;;;;;;;;;3.00;2.00;;;;;32.58;22.48;101787.72;5054215;28;45380;-77
2022/06/13 03:12:51;;;;;;;;;4.33;3.67;;;;;32.74;22.22;101827.09;5054254;28;46778;-77
2022/06/13 03:15:27;;;;;;;;;4.00;4.00;;;;;32.54;22.25;101811.72;5037431;28;45429;-77
2022/06/13 03:18:02;;;;;;;;;3.00;3.00;;;;;32.73;22.40;101811.59;5054384;28;45455;-77
2022/06/13 03:20:48;;;;;;;;;4.00;4.00;;;;;32.88;22.63;101817.16;5054427;28;45478;-77
2022/06/13 03:23:41;;;;;;;;;4.33;4.33;;;;;32.92;22.59;101827.88;5054248;28;45516;-77
2022/06/13 03:26:13;;;;;;;;;3.67;3.67;;;;;33.04;22.17;101826.28;5037327;28;46003;-77
2022/06/13 03:28:50;;;;;;;;;6.00;5.00;;;;;33.12;22.07;101837.72;5054366;28;45328;-77
2022/06/13 03:31:26;;;;;;;;;7.00;3.67;;;;;32.99;22.28;101821.03;5054175;28;45634;-76
2022/06/13 03:33:55;;;;;;;;;6.33;5.00;;;;;32.98;22.67;101834.88;5037029;28;47188;-77
2022/06/13 03:36:30;;;;;;;;;6.00;5.00;;;;;32.66;22.13;101805.53;5054108;28;45513;-77
2022/06/13 03:39:22;;;;;;;;;4.00;4.00;;;;;32.73;22.66;101832.66;5085931;27;45303;-77
2022/06/13 03:41:53;;;;;;;;;4.33;4.00;;;;;32.86;22.62;101841.13;5096935;27;46070;-77
2022/06/13 03:44:24;;;;;;;;;4.00;4.00;;;;;33.00;21.76;101846.69;5096830;27;45691;-77
2022/06/13 03:47:03;;;;;;;;;4.67;4.67;;;;;33.00;22.35;101841.19;5097063;27;45337;-77
2022/06/13 03:49:40;;;;;;;;;5.00;3.67;;;;;33.09;22.66;101859.00;5096977;27;45360;-77
2022/06/13 03:52:09;;;;;;;;;5.00;4.00;;;;;33.08;22.15;101844.38;5096804;27;45310;-77
2022/06/13 03:55:26;;;;;;;;;6.67;4.33;;;;;33.14;22.68;101848.63;5096397;27;46374;-77
2022/06/13 03:58:04;;;;;;;;;5.33;4.00;;;;;33.18;22.61;101836.47;5093765;27;45525;-77
2022/06/13 04:00:34;;;;;;;;;4.00;3.67;;;;;33.12;22.19;101853.31;5096965;27;45269;-77
2022/06/13 04:03:01;;;;;;;;;8.00;5.00;;;;;32.98;22.38;101834.88;5096699;27;45425;-77
2022/06/13 04:05:53;;;;;;;;;5.67;4.67;;;;;33.18;22.69;101845.59;5095225;27;47225;-77
2022/06/13 04:08:18;;;;;;;;;6.67;5.00;;;;;33.12;22.20;101834.97;5096181;27;45560;-77
2022/06/13 04:10:56;;;;;;;;;2.67;2.67;;;;;33.25;21.97;101850.75;5096829;27;45435;-77
2022/06/13 04:13:24;;;;;;;;;8.67;5.00;;;;;33.27;22.62;101854.31;5112458;27;45375;-78
2022/06/13 04:16:14;;;;;;;;;7.33;5.00;;;;;33.24;22.75;101854.50;5096354;27;45695;-80
2022/06/13 04:18:58;;;;;;;;;5.00;5.00;;;;;33.20;22.58;101853.75;5096409;27;45402;-80
2022/06/13 04:22:05;;;;;;;;;4.00;4.00;;;;;32.95;22.41;101829.56;5095493;27;45419;-80
2022/06/13 04:24:49;;;;;;;;;6.33;4.67;;;;;33.23;22.13;101855.47;5096557;27;45397;-76
2022/06/13 04:27:36;;;;;;;;;5.33;4.67;;;;;32.97;22.85;101839.50;5096109;27;45506;-79
2022/06/13 04:30:14;;;;;;;;;6.00;4.33;;;;;33.00;22.71;101846.69;5096214;27;45429;-79
2022/06/13 04:32:47;;;;;;;;;6.00;4.00;;;;;32.99;22.86;101866.91;5112463;27;45394;-79
2022/06/13 04:35:13;;;;;;;;;6.00;4.33;;;;;32.97;22.72;101863.38;5094885;27;45407;-78
2022/06/13 04:37:41;;;;;;;;;5.67;5.33;;;;;32.92;22.68;101860.84;5095901;27;46658;-76
2022/06/13 04:40:11;;;;;;;;;4.67;4.67;;;;;33.02;22.93;101865.84;5096060;27;45243;-79
2022/06/13 04:42:40;;;;;;;;;7.00;5.00;;;;;32.95;22.39;101851.56;5096378;27;45390;-77
2022/06/13 04:45:18;;;;;;;;;6.00;5.00;;;;;32.98;22.67;101862.38;5096077;27;45585;-67
2022/06/13 04:47:45;;;;;;;;;4.67;4.67;;;;;32.86;22.76;101872.22;5095178;27;45352;-67
2022/06/13 04:50:23;;;;;;;;;5.00;5.00;;;;;32.89;23.19;101858.28;5095593;27;45477;-66
2022/06/13 04:52:51;;;;;;;;;5.67;4.67;;;;;32.93;22.74;101861.75;5095694;27;45551;-67
2022/06/13 04:55:25;;;;;;;;;5.00;5.00;;;;;32.74;23.30;101862.84;5095771;27;45523;-66
2022/06/13 04:57:51;;;;;;;;;9.33;6.00;;;;;32.61;23.30;101865.34;5094315;27;46208;-66
2022/06/13 05:00:17;;;;;;;;;6.67;5.67;;;;;32.69;22.96;101869.53;5095715;27;45259;-67
2022/06/13 05:02:49;;;;;;;;;7.33;5.00;;;;;32.80;22.88;101865.22;5095836;27;45381;-67
2022/06/13 05:05:41;;;;;;;;;4.67;4.67;;;;;32.70;23.56;101874.97;5095286;27;45357;-69
2022/06/13 05:08:21;;;;;;;;;4.33;4.33;;;;;32.46;23.67;101879.94;5095157;27;45583;-68
2022/06/13 05:10:49;;;;;;;;;6.00;4.33;;;;;32.52;23.11;101865.88;5112198;27;45401;-81
2022/06/13 05:13:15;;;;;;;;;7.67;6.00;;;;;32.53;23.44;101826.41;5096061;27;45522;-81
2022/06/13 05:15:43;;;;;;;;;6.00;4.33;;;;;32.77;23.17;101862.66;5096090;27;45337;-80
2022/06/13 05:18:27;;;;;;;;;6.67;5.00;;;;;32.92;23.00;101887.47;5095087;27;45558;-80
2022/06/13 05:21:29;;;;;;;;;7.67;5.67;;;;;33.08;22.92;101887.44;5095204;27;45419;-82
2022/06/13 05:24:14;;;;;;;;;4.67;4.67;;;;;33.06;22.82;101849.06;5095653;27;45506;-82
2022/06/13 05:26:40;;;;;;;;;5.00;5.00;;;;;33.12;22.85;101870.72;5095780;27;45446;-83
2022/06/13 05:29:09;;;;;;;;;9.00;5.33;;;;;32.76;22.56;101821.53;5094962;27;45500;-83
2022/06/13 05:31:34;;;;;;;;;3.00;2.67;;;;;32.64;23.41;101845.94;5095515;27;45319;-84
2022/06/13 05:34:00;;;;;;;;;6.33;6.00;;;;;32.98;23.31;101871.50;5094193;27;45366;-80
2022/06/13 05:36:27;;;;;;;;;7.33;6.67;;;;;33.07;23.28;101886.56;5093691;27;45455;-81
2022/06/13 05:38:55;;;;;;;;;6.33;5.33;;;;;33.18;23.00;101870.34;5095504;27;46527;-77
2022/06/13 05:41:21;;;;;;;;;5.67;5.00;;;;;33.04;22.82;101869.38;5095098;27;45386;-80
2022/06/13 05:43:47;;;;;;;;;5.67;5.00;;;;;33.08;23.17;101891.09;5094005;27;45543;-81
2022/06/13 05:46:17;;;;;;;;;4.00;4.00;;;;;33.12;22.90;101878.97;5095014;27;45399;-81
2022/06/13 05:48:43;;;;;;;;;5.33;5.33;;;;;33.29;22.72;101890.84;5095087;27;45637;-80
2022/06/13 05:51:08;;;;;;;;;6.33;5.00;;;;;33.31;22.49;101883.41;5095100;27;45412;-83
2022/06/13 05:53:33;;;;;;;;;7.67;6.00;;;;;33.39;23.12;101886.59;5094685;27;45515;-81
2022/06/13 05:56:02;;;;;;;;;8.67;5.00;;;;;33.45;22.35;101891.69;5094396;27;45340;-82
2022/06/13 05:58:27;;;;;;;;;4.00;4.00;;;;;33.41;22.58;101908.50;5094440;27;46580;-83
2022/06/13 06:00:57;;;;;;;;;6.00;4.67;;;;;33.26;23.24;101893.78;5098382;27;45429;-82
2022/06/13 06:03:23;;;;;;;;;6.00;5.33;;;;;33.40;23.02;101880.06;5098359;27;45254;-81
2022/06/13 06:05:49;;;;;;;;;23.00;17.00;;;;;33.48;22.52;101872.25;5113935;27;45542;-81
2022/06/13 06:08:20;;;;;;;;;17.33;11.67;;;;;33.74;22.52;101905.56;5097841;27;45526;-82
2022/06/13 06:10:48;;;;;;;;;6.00;5.00;;;;;33.70;22.83;101906.75;5097030;27;45618;-64
2022/06/13 06:13:14;;;;;;;;;8.67;5.67;;;;;33.68;23.17;101893.09;5096233;27;45367;-64
2022/06/13 06:15:42;;;;;;;;;8.00;4.00;;;;;33.73;22.58;101908.41;5096569;27;45403;-64
2022/06/13 06:18:07;;;;;;;;;7.33;5.00;;;;;33.40;22.83;101913.09;5097148;27;45519;-64
2022/06/13 06:20:33;;;;;;;;;5.00;5.00;;;;;33.38;23.13;101906.81;5097326;27;45462;-64
2022/06/13 06:22:58;;;;;;;;;7.00;6.00;;;;;33.58;23.04;101912.97;5097717;27;45477;-64
2022/06/13 06:25:23;;;;;;;;;10.33;6.00;;;;;33.56;22.83;101914.91;5097362;27;45341;-64
2022/06/13 06:27:49;;;;;;;;;6.67;6.67;;;;;33.53;22.88;101923.38;5096107;27;45510;-64
2022/06/13 06:30:17;;;;;;;;;7.00;6.00;;;;;33.65;22.57;101923.50;5097128;27;45275;-64
2022/06/13 06:32:43;;;;;;;;;6.00;5.00;;;;;33.67;22.96;101923.41;5097462;27;45252;-64
2022/06/13 06:35:09;;;;;;;;;6.67;6.67;;;;;33.51;22.93;101926.22;5097427;27;45507;-64
2022/06/13 06:37:38;;;;;;;;;6.00;5.00;;;;;33.45;22.63;101913.72;5097214;27;46045;-64
2022/06/13 06:40:04;;;;;;;;;14.00;6.00;;;;;33.57;22.83;101927.72;5097372;27;45441;-64
2022/06/13 06:42:30;;;;;;;;;6.67;5.67;;;;;33.69;22.67;101926.97;5097676;27;45449;-64
2022/06/13 06:44:55;;;;;;;;;5.67;4.67;;;;;33.84;22.37;101933.47;5098087;27;45430;-64
2022/06/13 06:47:20;;;;;;;;;8.33;6.00;;;;;33.74;22.34;101926.69;5103654;27;45600;-67
2022/06/13 06:49:47;;;;;;;;;7.00;6.00;;;;;33.73;22.33;101934.06;5099783;27;49754;-68
2022/06/13 06:52:12;;;;;;;;;8.33;5.67;;;;;33.83;22.77;101929.81;5096080;27;45440;-68
2022/06/13 07:00:07;;;;;;;;;4.33;4.33;;;;;33.95;21.96;101941.94;5097809;27;45417;-71
2022/06/13 07:02:33;;;;;;;;;4.00;4.00;;;;;33.64;22.25;101935.53;5096274;27;45447;-68
2022/06/13 07:05:05;;;;;;;;;7.00;5.00;;;;;33.81;22.20;101934.53;5094295;27;45468;-69
2022/06/13 07:07:31;;;;;;;;;4.67;4.67;;;;;33.77;22.29;101938.44;5096455;27;45411;-68
2022/06/13 07:09:57;;;;;;;;;4.00;4.00;;;;;33.78;22.28;101942.94;5096234;27;45500;-69
2022/06/13 07:12:23;;;;;;;;;7.33;5.67;;;;;33.87;22.08;101935.13;5098797;27;45440;-69
2022/06/13 07:14:48;;;;;;;;;7.00;5.00;;;;;33.69;22.14;101936.09;5098230;27;45754;-69
2022/06/13 07:17:14;;;;;;;;;4.67;4.33;;;;;33.80;22.02;101935.50;5109990;27;45544;-69
2022/06/13 07:19:43;;;;;;;;;6.67;5.00;;;;;33.98;21.71;101938.09;5116205;27;45896;-69
2022/06/13 07:22:12;;;;;;;;;5.00;4.00;;;;;34.23;21.69;101945.72;5098238;27;45469;-69
2022/06/13 07:24:37;;;;;;;;;5.00;5.00;;;;;34.27;21.79;101943.66;5106102;27;45412;-68
2022/06/13 07:27:03;;;;;;;;;5.00;4.00;;;;;34.29;21.97;101945.38;5112799;27;46185;-68
2022/06/13 07:29:29;;;;;;;;;5.00;4.00;;;;;34.42;21.71;101951.00;5101025;27;45487;-68
2022/06/13 07:32:01;;;;;;;;;7.33;6.67;;;;;34.56;21.45;101955.63;5113871;27;45464;-68
2022/06/13 07:34:31;;;;;;;;;7.67;6.00;;;;;34.37;21.72;101931.09;5097639;27;45455;-68
2022/06/13 07:36:59;;;;;;;;;8.33;5.00;;;;;34.35;21.47;101952.38;5096665;27;45430;-68
2022/06/13 07:39:24;;;;;;;;;5.67;2.67;;;;;34.36;20.97;101941.25;5097040;27;46540;-67
2022/06/13 07:41:51;;;;;;;;;5.67;3.67;;;;;34.62;21.10;101946.97;5097279;27;46184;-66
2022/06/13 07:44:23;;;;;;;;;3.67;2.67;;;;;34.63;21.04;101937.72;5097118;27;45508;-67
2022/06/13 07:46:50;;;;;;;;;5.33;4.00;;;;;34.74;20.63;101945.31;5096412;27;45823;-67
2022/06/13 07:49:17;;;;;;;;;3.00;3.00;;;;;34.63;20.34;101947.88;5108437;27;45355;-67
2022/06/13 07:51:43;;;;;;;;;7.00;5.00;;;;;34.66;20.25;101951.28;5100328;27;45241;-66
2022/06/13 07:54:08;;;;;;;;;2.33;2.00;;;;;34.63;20.17;101948.75;5117209;27;45422;-67
2022/06/13 07:56:35;;;;;;;;;2.00;2.00;;;;;34.77;20.66;101946.94;5117319;27;45474;-67
2022/06/13 07:59:00;;;;;;;;;4.67;4.00;;;;;34.75;20.80;101921.38;5101015;27;45502;-66
2022/06/13 08:01:27;;;;;;;;;3.00;2.33;;;;;35.07;20.60;101954.25;5096372;27;45486;-67
2022/06/13 08:03:53;;;;;;;;;3.00;3.00;;;;;35.18;20.02;101963.56;5097073;27;45452;-66
2022/06/13 08:06:19;;;;;;;;;5.00;4.00;;;;;35.15;20.12;101961.03;5096532;27;45466;-67
2022/06/13 08:08:46;;;;;;;;;4.67;3.67;;;;;35.02;19.99;101963.72;5096501;27;45654;-67
2022/06/13 08:11:15;;;;;;;;;7.00;5.00;;;;;34.93;20.55;101957.91;5099877;27;45484;-66
2022/06/13 08:13:41;;;;;;;;;4.33;4.33;;;;;35.04;20.19;101964.47;5097535;27;46254;-67
2022/06/13 08:16:08;;;;;;;;;5.67;4.00;;;;;35.16;20.39;101965.56;5095205;27;46176;-68
2022/06/13 08:18:34;;;;;;;;;4.33;3.00;;;;;35.27;20.37;101953.78;5096751;27;45483;-67
2022/06/13 08:21:00;;;;;;;;;4.00;4.00;;;;;35.09;19.28;101946.75;5097876;27;45440;-67
2022/06/13 08:23:26;;;;;;;;;3.00;3.00;;;;;35.43;19.42;101953.69;5094676;27;45924;-67
2022/06/13 08:25:52;;;;;;;;;5.00;3.00;;;;;35.45;19.39;101945.31;5095081;27;46904;-67
2022/06/13 08:28:18;;;;;;;;;5.00;3.00;;;;;35.54;18.95;101962.13;5095565;27;45418;-67
2022/06/13 08:30:46;;;;;;;;;3.00;3.00;;;;;35.53;19.10;101960.34;5095935;27;45412;-67
2022/06/13 08:33:12;;;;;;;;;5.00;4.00;;;;;35.21;19.25;101927.50;5094088;27;45567;-83
2022/06/13 08:35:38;;;;;;;;;3.00;3.00;;;;;35.55;19.10;101954.72;5097789;27;45567;-82
2022/06/13 08:38:03;;;;;;;;;3.00;3.00;;;;;35.58;19.34;101959.16;5088586;27;45568;-82
2022/06/13 08:40:39;;;;;;;;;2.67;2.33;;;;;35.32;18.89;101928.72;5087657;27;45472;-82
2022/06/13 08:43:33;;;;;;;;;3.00;3.00;;;;;35.14;19.69;101950.97;5100586;27;45517;-82
2022/06/13 08:46:14;;;;;;;;;6.00;5.00;;;;;35.27;19.04;101964.81;5073411;28;45541;-82
2022/06/13 08:48:43;;;;;;;;;4.33;3.00;;;;;35.34;19.04;101957.06;5073184;28;45460;-82
2022/06/13 08:51:12;;;;;;;;;6.33;3.67;;;;;35.54;19.04;101963.97;5072909;27;45743;-82
2022/06/13 08:53:47;;;;;;;;;4.33;3.00;;;;;35.63;18.97;101956.97;5072244;27;45517;-82
2022/06/13 08:56:16;;;;;;;;;6.00;5.00;;;;;35.68;18.63;101949.25;5078336;27;46169;-82
2022/06/13 08:58:51;;;;;;;;;6.00;4.00;;;;;35.76;18.49;101955.13;5054743;28;45509;-82
2022/06/13 09:01:22;;;;;;;;;3.33;3.33;;;;;35.77;18.80;101954.13;5073894;27;45468;-82
2022/06/13 09:04:00;;;;;;;;;3.00;3.00;;;;;35.55;18.35;101911.44;5076320;27;45615;-84
2022/06/13 09:06:37;;;;;;;;;3.67;3.00;;;;;35.60;18.55;101910.22;5061606;28;47220;-82
2022/06/13 09:09:25;;;;;;;;;8.67;4.00;;;;;35.51;18.57;101943.03;5055854;28;45496;-81
2022/06/13 09:12:07;;;;;;;;;3.33;3.33;;;;;35.33;18.50;101895.50;5034989;28;45501;-79
2022/06/13 09:14:34;;;;;;;;;5.33;3.00;;;;;35.44;18.47;101907.66;5064388;27;45612;-78
2022/06/13 09:17:12;;;;;;;;;5.67;3.00;;;;;35.48;18.15;101904.56;5084844;27;45721;-79
2022/06/13 09:20:00;;;;;;;;;4.00;3.00;;;;;35.70;18.10;101931.59;5092610;27;45426;-78
2022/06/13 09:22:33;;;;;;;;;2.67;2.33;;;;;35.80;18.05;101967.72;5089837;27;45662;-79
2022/06/13 09:25:11;;;;;;;;;3.67;3.67;;;;;35.55;18.28;101950.06;5096012;27;45640;-78
2022/06/13 09:27:54;;;;;;;;;5.00;3.00;;;;;35.61;18.18;101931.34;5114962;27;46205;-78
2022/06/13 09:30:34;;;;;;;;;4.33;3.00;;;;;35.72;18.25;101925.94;5115148;27;45423;-79
2022/06/13 09:33:16;;;;;;;;;6.00;4.00;;;;;35.91;17.72;101952.31;5105412;27;45397;-78
2022/06/13 09:35:55;;;;;;;;;3.00;3.00;;;;;35.93;17.69;101928.25;5098730;27;45339;-78
2022/06/13 09:38:38;;;;;;;;;3.00;3.00;;;;;35.82;17.64;101965.75;5117134;27;45575;-77
2022/06/13 09:41:12;;;;;;;;;3.67;3.00;;;;;35.59;17.64;101970.09;5119041;27;45608;-78
2022/06/13 09:44:01;;;;;;;;;4.67;3.00;;;;;35.28;17.19;101949.19;5106157;27;45386;-77
2022/06/13 09:46:45;;;;;;;;;3.00;3.00;;;;;35.20;18.04;101924.84;5097178;27;45365;-77
2022/06/13 09:49:24;;;;;;;;;2.00;2.00;;;;;35.59;17.54;101971.97;5096469;27;46369;-77
2022/06/13 09:52:02;;;;;;;;;3.00;2.00;;;;;35.57;17.89;101968.41;5101309;27;45342;-77
2022/06/13 09:54:30;;;;;;;;;6.33;3.33;;;;;35.74;17.62;101973.69;5103788;27;45457;-77
2022/06/13 09:56:58;;;;;;;;;5.00;3.00;;;;;35.71;17.55;101972.00;5097300;27;45252;-77
2022/06/13 09:59:41;;;;;;;;;4.67;4.00;;;;;35.68;18.08;101968.56;5096998;27;47616;-77
2022/06/13 10:02:20;;;;;;;;;5.00;4.00;;;;;35.88;17.92;101951.53;5098224;27;45361;-78
2022/06/13 10:05:20;;;;;;;;;4.00;3.00;;;;;36.21;17.98;101966.72;5098389;27;45437;-75
2022/06/13 10:08:00;;;;;;;;;3.00;3.00;;;;;36.30;17.59;101967.06;5077696;27;45171;-71
2022/06/13 10:10:44;;;;;;;;;3.00;3.00;;;;;36.31;17.27;101964.22;5094237;27;45825;-71
2022/06/13 10:13:33;;;;;;;;;5.33;2.00;;;;;36.47;17.21;101952.97;5084989;27;45464;-78
2022/06/13 10:16:20;;;;;;;;;5.00;4.00;;;;;36.54;17.18;101962.56;5091320;27;45571;-78
2022/06/13 10:19:09;;;;;;;;;4.00;3.00;;;;;36.32;16.97;101956.84;5075800;27;45359;-77
2022/06/13 10:21:41;;;;;;;;;2.00;2.00;;;;;36.35;16.75;101962.13;5090952;27;45538;-78
2022/06/13 10:24:06;;;;;;;;;4.33;3.00;;;;;36.55;16.94;101956.03;5113632;27;45458;-78
2022/06/13 10:26:40;;;;;;;;;4.67;3.00;;;;;36.73;16.81;101956.56;5097841;27;45562;-78
2022/06/13 10:29:27;;;;;;;;;3.33;2.33;;;;;36.69;16.77;101957.78;5098027;27;45332;-79
2022/06/13 10:32:07;;;;;;;;;4.33;3.00;;;;;36.47;16.25;101955.72;5100391;27;46502;-78
2022/06/13 10:35:02;;;;;;;;;4.00;3.67;;;;;36.26;17.08;101959.97;5113638;27;45531;-78
2022/06/13 10:37:42;;;;;;;;;4.67;3.33;;;;;36.18;16.81;101952.25;5098262;27;45424;-78
2022/06/13 10:40:09;;;;;;;;;9.00;4.00;;;;;36.25;16.87;101942.53;5097882;27;45223;-78
2022/06/13 10:42:36;;;;;;;;;4.67;3.33;;;;;36.31;16.56;101955.06;5100685;27;45500;-78
2022/06/13 10:45:07;;;;;;;;;3.00;3.00;;;;;36.17;16.76;101934.78;5096732;27;45681;-79
2022/06/13 10:47:46;;;;;;;;;2.00;2.00;;;;;36.09;16.58;101952.91;5097904;27;45516;-78
2022/06/13 10:50:19;;;;;;;;;4.00;2.67;;;;;36.17;16.66;101951.34;5097658;27;45493;-78
2022/06/13 10:52:49;;;;;;;;;3.33;3.00;;;;;36.41;16.85;101936.81;5096147;27;47097;-79
2022/06/13 10:55:21;;;;;;;;;3.00;3.00;;;;;36.39;16.04;101936.91;5095945;27;45590;-79
2022/06/13 10:58:02;;;;;;;;;4.33;3.00;;;;;36.36;17.15;101950.97;5095891;27;45512;-77
2022/06/13 11:00:30;;;;;;;;;6.67;3.33;;;;;36.24;16.75;101962.84;5097540;27;45315;-78
2022/06/13 11:03:17;;;;;;;;;5.00;4.00;;;;;36.16;16.62;101932.13;5095413;27;45835;-79
2022/06/13 11:05:53;;;;;;;;;5.00;4.00;;;;;36.09;16.36;101947.38;5097799;27;45521;-78
2022/06/13 11:08:20;;;;;;;;;5.00;4.00;;;;;36.28;16.18;101958.88;5096750;27;45498;-78
2022/06/13 11:10:58;;;;;;;;;4.00;4.00;;;;;36.29;16.36;101951.47;5097241;27;45370;-78
2022/06/13 11:13:27;;;;;;;;;7.00;4.00;;;;;36.45;16.90;101949.41;5095144;27;47091;-77
2022/06/13 11:24:40;;;;;;;;;3.00;3.00;;;;;36.77;16.54;101950.84;5095735;27;45759;-76
2022/06/13 11:30:25;;;;;;;;;4.00;4.00;;;;;37.04;16.63;101945.16;5094326;27;45288;-77
2022/06/13 11:32:59;;;;;;;;;3.00;3.00;;;;;36.71;15.70;101935.56;5095686;27;45504;-76
2022/06/13 11:35:38;;;;;;;;;2.67;2.67;;;;;36.57;15.89;101948.53;5096771;27;48067;-77
2022/06/13 11:38:16;;;;;;;;;3.33;3.33;;;;;36.51;16.09;101954.50;5094052;27;45505;-77
2022/06/13 11:40:45;;;;;;;;;3.00;3.00;;;;;36.43;16.58;101937.59;5091749;27;45512;-77
2022/06/13 11:43:30;;;;;;;;;5.00;4.00;;;;;36.55;16.37;101931.16;5096260;27;45514;-78
2022/06/13 11:46:02;;;;;;;;;4.00;4.00;;;;;36.66;15.86;101935.03;5095350;27;45504;-78
2022/06/13 11:48:29;;;;;;;;;6.33;3.00;;;;;36.77;16.05;101929.59;5094702;27;45389;-78
2022/06/13 11:51:03;;;;;;;;;3.00;3.00;;;;;36.49;16.00;101898.44;5093233;27;45533;-78
2022/06/13 11:53:36;;;;;;;;;3.00;3.00;;;;;36.67;16.25;101921.09;5080715;27;45488;-77
2022/06/13 11:56:11;;;;;;;;;3.00;3.00;;;;;36.74;15.95;101919.63;5087884;27;47475;-78
2022/06/13 11:58:41;;;;;;;;;4.67;3.00;;;;;36.98;15.97;101926.25;5096471;27;45476;-78
2022/06/13 12:01:37;;;;;;;;;3.00;3.00;;;;;37.09;16.32;101929.09;5095883;27;45484;-78
2022/06/13 12:04:11;;;;;;;;;3.00;3.00;;;;;37.15;15.65;101914.78;5102455;27;45443;-78
2022/06/13 12:06:48;;;;;;;;;4.00;2.67;;;;;37.30;15.43;101918.31;5109472;27;45470;-78
2022/06/13 12:09:23;;;;;;;;;3.33;2.00;;;;;36.84;15.64;101903.28;5094054;27;45410;-78
2022/06/13 12:11:58;;;;;;;;;4.00;4.00;;;;;36.89;15.83;101916.75;5095824;27;45689;-78
2022/06/13 12:14:28;;;;;;;;;4.00;3.00;;;;;36.84;15.62;101919.00;5092185;27;45409;-78